createdAt,value
2018-07-16T00:01:12.093Z,95.40
2018-07-16T00:03:40.712Z,95.50
2018-07-16T00:06:09.404Z,95.10
2018-07-16T00:08:38.076Z,94.90
2018-07-16T00:11:06.773Z,94.90
2018-07-16T00:13:35.466Z,94.90
2018-07-16T00:16:04.104Z,95.10
2018-07-16T00:18:32.627Z,95.00
2018-07-16T00:21:01.220Z,95.20
2018-07-16T00:23:29.828Z,95.30
2018-07-16T00:25:58.424Z,95.40
2018-07-16T00:28:27.047Z,95.30
2018-07-16T00:30:55.660Z,95.40
2018-07-16T00:33:24.244Z,95.50
2018-07-16T00:35:52.853Z,95.80
2018-07-16T00:38:21.574Z,96.40
2018-07-16T00:40:50.166Z,96.40
2018-07-16T00:43:18.736Z,96.30
2018-07-16T00:45:47.317Z,96.40
2018-07-16T00:48:15.940Z,96.30
2018-07-16T00:50:44.493Z,96.30
2018-07-16T00:53:13.116Z,96.70
2018-07-16T00:55:41.750Z,96.50
2018-07-16T00:58:10.454Z,96.40
2018-07-16T01:00:39.050Z,96.20
2018-07-16T01:03:07.714Z,96.20
2018-07-16T01:05:36.437Z,96.00
2018-07-16T01:08:05.049Z,96.00
2018-07-16T01:10:33.706Z,96.20
2018-07-16T01:13:02.365Z,96.20
2018-07-16T01:15:31.022Z,96.20
2018-07-16T01:17:59.604Z,96.00
2018-07-16T01:20:28.304Z,96.00
2018-07-16T01:22:56.936Z,96.00
2018-07-16T01:25:25.549Z,96.00
2018-07-16T01:27:54.093Z,96.30
2018-07-16T01:30:22.660Z,96.30
2018-07-16T01:32:51.277Z,96.30
2018-07-16T01:35:19.908Z,96.20
2018-07-16T01:37:48.485Z,96.00
2018-07-16T01:40:17.058Z,95.90
2018-07-16T01:42:45.784Z,95.90
2018-07-16T01:45:14.305Z,95.80
2018-07-16T01:47:42.945Z,95.80
2018-07-16T01:50:11.584Z,95.90
2018-07-16T01:52:40.218Z,96.10
2018-07-16T01:55:08.963Z,96.40
2018-07-16T01:57:37.607Z,96.40
2018-07-16T02:00:06.237Z,96.60
2018-07-16T02:02:34.873Z,96.80
2018-07-16T02:05:03.564Z,96.90
2018-07-16T02:07:32.096Z,97.00
2018-07-16T02:10:00.814Z,97.00
2018-07-16T02:12:29.426Z,97.30
2018-07-16T02:14:58.063Z,97.20
2018-07-16T02:17:26.689Z,97.00
2018-07-16T02:19:55.326Z,97.00
2018-07-16T02:22:23.966Z,97.20
2018-07-16T02:24:52.563Z,97.30
2018-07-16T02:27:21.044Z,97.20
2018-07-16T02:29:49.549Z,97.30
2018-07-16T02:32:18.215Z,97.20
2018-07-16T02:34:46.805Z,97.20
2018-07-16T02:37:15.398Z,97.30
2018-07-16T02:39:44.078Z,97.40
2018-07-16T02:42:12.656Z,97.60
2018-07-16T02:44:41.406Z,97.70
2018-07-16T02:47:10.048Z,97.60
2018-07-16T02:49:38.714Z,97.80
2018-07-16T02:52:07.418Z,97.80
2018-07-16T02:54:36.097Z,97.80
2018-07-16T02:57:04.674Z,97.80
2018-07-16T02:59:33.321Z,97.80
2018-07-16T03:02:01.920Z,97.80
2018-07-16T03:04:30.590Z,97.80
2018-07-16T03:06:59.194Z,97.70
2018-07-16T03:09:27.884Z,97.70
2018-07-16T03:11:56.524Z,97.80
2018-07-16T03:14:25.127Z,98.00
2018-07-16T03:16:53.797Z,98.00
2018-07-16T03:19:22.476Z,98.00
2018-07-16T03:21:51.195Z,98.00
2018-07-16T03:24:19.803Z,98.00
2018-07-16T03:26:48.405Z,97.80
2018-07-16T03:29:17.133Z,97.80
2018-07-16T03:31:45.754Z,97.60
2018-07-16T03:34:14.295Z,97.50
2018-07-16T03:36:42.986Z,97.40
2018-07-16T03:39:11.610Z,97.50
2018-07-16T03:41:40.210Z,97.70
2018-07-16T03:44:08.827Z,97.80
2018-07-16T03:46:37.513Z,97.70
2018-07-16T03:49:06.098Z,97.60
2018-07-16T03:51:34.797Z,97.50
2018-07-16T03:54:03.564Z,97.80
2018-07-16T03:56:32.196Z,97.80
2018-07-16T03:59:00.746Z,98.00
2018-07-16T04:01:29.603Z,98.20
2018-07-16T04:03:58.185Z,98.30
2018-07-16T04:06:26.778Z,98.40
2018-07-16T04:08:55.381Z,98.40
2018-07-16T04:11:24.041Z,98.50
2018-07-16T04:13:52.717Z,98.60
2018-07-16T04:16:21.427Z,98.20
2018-07-16T04:18:49.989Z,98.20
2018-07-16T04:21:18.676Z,98.20
2018-07-16T04:23:47.267Z,98.20
2018-07-16T04:26:15.949Z,98.30
2018-07-16T04:28:44.645Z,98.30
2018-07-16T04:31:13.196Z,98.30
2018-07-16T04:33:41.754Z,98.20
2018-07-16T04:36:10.486Z,98.20
2018-07-16T04:38:39.058Z,98.20
2018-07-16T04:41:07.643Z,98.00
2018-07-16T04:43:36.306Z,98.00
2018-07-16T04:46:04.890Z,98.00
2018-07-16T04:48:33.609Z,97.80
2018-07-16T04:51:02.585Z,97.80
2018-07-16T04:53:31.339Z,97.70
2018-07-16T04:56:00.010Z,97.50
2018-07-16T04:58:28.573Z,97.30
2018-07-16T05:00:57.265Z,97.20
2018-07-16T05:03:25.899Z,97.20
2018-07-16T05:05:54.429Z,97.00
2018-07-16T05:08:23.085Z,97.20
2018-07-16T05:10:51.695Z,97.20
2018-07-16T05:13:20.421Z,96.60
2018-07-16T05:15:49.106Z,96.40
2018-07-16T05:18:17.804Z,96.00
2018-07-16T05:20:46.467Z,95.90
2018-07-16T05:23:15.104Z,95.80
2018-07-16T05:25:43.674Z,95.80
2018-07-16T05:28:12.335Z,95.50
2018-07-16T05:30:41.007Z,95.40
2018-07-16T05:33:09.645Z,95.50
2018-07-16T05:35:38.247Z,95.40
2018-07-16T05:38:12.272Z,95.40
2018-07-16T05:41:03.790Z,95.00
2018-07-16T05:43:32.441Z,94.90
2018-07-16T05:46:01.138Z,94.40
2018-07-16T05:48:29.725Z,94.60
2018-07-16T05:50:58.333Z,94.40
2018-07-16T05:53:26.973Z,93.60
2018-07-16T05:55:55.514Z,93.00
2018-07-16T05:58:24.103Z,93.30
2018-07-16T06:00:52.790Z,93.00
2018-07-16T06:03:21.597Z,93.00
2018-07-16T06:05:50.199Z,92.70
2018-07-16T06:08:18.874Z,92.50
2018-07-16T06:10:48.668Z,92.40
2018-07-16T06:13:17.543Z,92.60
2018-07-16T06:15:46.557Z,91.80
2018-07-16T06:18:15.831Z,91.80
2018-07-16T06:20:44.502Z,91.50
2018-07-16T06:23:13.038Z,91.20
2018-07-16T06:25:41.620Z,91.00
2018-07-16T06:28:10.249Z,90.60
2018-07-16T06:30:38.792Z,90.30
2018-07-16T06:33:07.462Z,90.10
2018-07-16T06:35:36.163Z,90.00
2018-07-16T06:38:04.911Z,90.00
2018-07-16T06:40:33.638Z,89.90
2018-07-16T06:43:02.152Z,89.10
2018-07-16T06:45:30.767Z,88.90
2018-07-16T06:48:02.291Z,89.30
2018-07-16T06:50:31.153Z,87.70
2018-07-16T06:52:59.745Z,88.10
2018-07-16T06:55:29.490Z,87.90
2018-07-16T06:58:15.449Z,88.20
2018-07-16T07:00:47.357Z,87.60
2018-07-16T07:03:16.093Z,86.90
2018-07-16T07:05:44.730Z,86.90
2018-07-16T07:08:19.447Z,86.00
2018-07-16T07:10:48.277Z,85.50
2018-07-16T07:13:16.850Z,85.20
2018-07-16T07:15:45.436Z,83.60
2018-07-16T07:18:14.104Z,83.00
2018-07-16T07:20:43.873Z,81.60
2018-07-16T07:23:12.535Z,80.70
2018-07-16T07:25:41.079Z,79.60
2018-07-16T07:28:09.599Z,79.50
2018-07-16T07:30:38.190Z,79.50
2018-07-16T07:33:06.761Z,79.10
2018-07-16T07:35:35.329Z,79.40
2018-07-16T07:38:03.830Z,78.30
2018-07-16T07:40:32.433Z,77.10
2018-07-16T07:43:01.032Z,75.80
2018-07-16T07:45:29.614Z,75.70
2018-07-16T07:47:58.217Z,75.20
2018-07-16T07:50:26.899Z,74.90
2018-07-16T07:52:55.475Z,73.50
2018-07-16T07:55:24.315Z,72.80
2018-07-16T07:57:52.591Z,73.60
2018-07-16T08:00:21.226Z,73.40
2018-07-16T08:02:49.758Z,73.00
2018-07-16T08:05:18.323Z,72.80
2018-07-16T08:07:46.857Z,74.20
2018-07-16T08:10:15.899Z,73.60
2018-07-16T08:12:44.554Z,73.40
2018-07-16T08:15:13.227Z,75.40
2018-07-16T08:17:41.813Z,74.40
2018-07-16T08:20:10.446Z,75.10
2018-07-16T08:22:39.052Z,74.80
2018-07-16T08:25:07.685Z,75.30
2018-07-16T08:27:36.224Z,73.90
2018-07-16T08:30:04.818Z,74.30
2018-07-16T08:32:33.468Z,72.80
2018-07-16T08:35:02.089Z,71.60
2018-07-16T08:37:30.748Z,70.80
2018-07-16T08:39:59.339Z,69.90
2018-07-16T08:42:27.981Z,70.70
2018-07-16T08:44:56.647Z,69.20
2018-07-16T08:47:25.295Z,68.70
2018-07-16T08:49:53.931Z,69.30
2018-07-16T08:52:29.794Z,69.30
2018-07-16T08:54:58.322Z,67.90
2018-07-16T08:57:26.942Z,68.00
2018-07-16T08:59:55.499Z,66.00
2018-07-16T09:02:24.040Z,64.80
2018-07-16T09:04:52.586Z,65.50
2018-07-16T09:07:22.037Z,65.40
2018-07-16T09:09:50.561Z,65.10
2018-07-16T09:12:19.141Z,63.70
2018-07-16T09:14:47.655Z,61.70
2018-07-16T09:17:16.292Z,61.40
2018-07-16T09:19:45.094Z,62.80
2018-07-16T09:22:13.698Z,61.60
2018-07-16T09:24:42.327Z,63.70
2018-07-16T09:27:11.003Z,63.10
2018-07-16T09:29:57.731Z,64.10
2018-07-16T09:32:26.276Z,60.50
2018-07-16T09:34:54.945Z,60.60
2018-07-16T09:37:24.966Z,60.50
2018-07-16T09:39:53.628Z,61.40
2018-07-16T09:42:22.781Z,61.20
2018-07-16T09:44:53.184Z,59.60
2018-07-16T09:47:22.708Z,61.60
2018-07-16T09:49:51.283Z,61.60
2018-07-16T09:52:21.136Z,57.00
2018-07-16T09:54:49.892Z,58.90
2018-07-16T09:57:18.544Z,58.20
2018-07-16T09:59:47.172Z,58.70
2018-07-16T10:02:16.452Z,58.00
2018-07-16T10:04:45.762Z,57.30
2018-07-16T10:07:14.499Z,56.70
2018-07-16T10:09:45.149Z,56.80
2018-07-16T10:12:13.669Z,56.40
2018-07-16T10:14:42.197Z,56.10
2018-07-16T10:17:10.955Z,56.00
2018-07-16T10:19:39.586Z,56.30
2018-07-16T10:22:08.199Z,54.40
2018-07-16T10:24:36.836Z,53.90
2018-07-16T10:27:05.418Z,55.80
2018-07-16T10:29:33.977Z,54.80
2018-07-16T10:32:02.573Z,57.50
2018-07-16T10:34:31.976Z,56.10
2018-07-16T10:37:01.275Z,54.60
2018-07-16T10:39:29.916Z,55.20
2018-07-16T10:41:58.442Z,55.50
2018-07-16T10:44:27.006Z,56.20
2018-07-16T10:46:55.666Z,52.50
2018-07-16T10:49:24.186Z,51.90
2018-07-16T10:51:52.680Z,53.80
2018-07-16T10:54:21.263Z,51.50
2018-07-16T10:56:49.729Z,51.90
2018-07-16T10:59:18.341Z,51.60
2018-07-16T11:01:46.890Z,52.20
2018-07-16T11:04:15.517Z,53.20
2018-07-16T11:06:44.112Z,53.40
2018-07-16T11:09:12.658Z,54.60
2018-07-16T11:11:41.244Z,55.30
2018-07-16T11:14:09.766Z,53.40
2018-07-16T11:16:38.390Z,54.00
2018-07-16T11:19:07.003Z,51.70
2018-07-16T11:21:35.518Z,52.20
2018-07-16T11:24:04.113Z,53.20
2018-07-16T11:26:32.651Z,51.60
2018-07-16T11:29:01.187Z,53.90
2018-07-16T11:31:29.700Z,52.40
2018-07-16T11:34:10.385Z,53.10
2018-07-16T11:36:39.760Z,51.20
2018-07-16T11:39:08.557Z,53.10
2018-07-16T11:41:37.513Z,54.10
2018-07-16T11:44:06.122Z,55.40
2018-07-16T11:46:34.678Z,53.10
2018-07-16T11:49:03.211Z,50.40
2018-07-16T11:51:32.885Z,51.30
2018-07-16T11:54:01.520Z,53.80
2018-07-16T11:56:30.126Z,55.40
2018-07-16T11:58:58.710Z,53.60
2018-07-16T12:01:27.155Z,53.00
2018-07-16T12:03:55.692Z,50.00
2018-07-16T12:06:25.130Z,50.50
2018-07-16T12:08:55.380Z,52.70
2018-07-16T12:11:24.068Z,50.70
2018-07-16T12:13:52.996Z,52.00
2018-07-16T12:16:21.641Z,51.70
2018-07-16T12:18:50.176Z,52.70
2018-07-16T12:21:18.857Z,53.30
2018-07-16T12:23:47.358Z,53.70
2018-07-16T12:26:16.024Z,51.20
2018-07-16T12:28:44.569Z,49.00
2018-07-16T12:31:15.179Z,52.80
2018-07-16T12:33:43.690Z,52.40
2018-07-16T12:36:12.268Z,53.20
2018-07-16T12:38:40.855Z,52.20
2018-07-16T12:41:09.718Z,51.70
2018-07-16T12:43:38.570Z,50.10
2018-07-16T12:46:07.298Z,50.10
2018-07-16T12:48:40.534Z,49.80
2018-07-16T12:51:09.702Z,51.60
2018-07-16T12:53:38.387Z,52.40
2018-07-16T12:56:18.430Z,48.80
2018-07-16T12:58:52.357Z,50.80
2018-07-16T13:01:21.174Z,53.60
2018-07-16T13:03:51.188Z,52.80
2018-07-16T13:06:22.790Z,53.00
2018-07-16T13:08:54.951Z,55.80
2018-07-16T13:11:23.604Z,52.70
2018-07-16T13:13:52.161Z,53.90
2018-07-16T13:16:25.033Z,52.10
2018-07-16T13:21:48.390Z,51.30
2018-07-16T13:24:17.995Z,46.70
2018-07-16T13:26:58.373Z,47.90
2018-07-16T13:29:27.453Z,49.20
2018-07-16T13:31:56.062Z,46.90
2018-07-16T13:34:24.696Z,48.80
2018-07-16T13:37:00.071Z,49.60
2018-07-16T13:39:28.476Z,50.00
2018-07-16T13:41:56.923Z,49.60
2018-07-16T13:44:25.354Z,46.70
2018-07-16T13:46:57.174Z,47.30
2018-07-16T13:49:25.717Z,44.70
2018-07-16T13:51:54.300Z,45.30
2018-07-16T13:54:22.813Z,45.30
2018-07-16T13:56:51.454Z,43.10
2018-07-16T13:59:20.231Z,44.40
2018-07-16T14:01:48.867Z,45.90
2018-07-16T14:04:17.350Z,47.40
2018-07-16T14:06:45.946Z,45.70
2018-07-16T14:09:14.490Z,45.90
2018-07-16T14:11:43.085Z,44.80
2018-07-16T14:14:11.659Z,45.20
2018-07-16T14:16:40.320Z,44.80
2018-07-16T14:19:08.813Z,42.00
2018-07-16T14:21:37.389Z,44.00
2018-07-16T14:24:05.977Z,45.40
2018-07-16T14:26:34.589Z,43.60
2018-07-16T14:29:03.147Z,43.60
2018-07-16T14:31:31.745Z,42.80
2018-07-16T14:34:00.309Z,42.80
2018-07-16T14:36:28.881Z,42.10
2018-07-16T14:38:57.390Z,42.20
2018-07-16T14:41:26.013Z,40.80
2018-07-16T14:43:54.538Z,42.90
2018-07-16T14:46:23.055Z,41.70
2018-07-16T14:48:51.613Z,40.20
2018-07-16T14:51:20.151Z,41.90
2018-07-16T14:53:48.717Z,42.90
2018-07-16T14:56:17.269Z,42.00
2018-07-16T14:58:45.877Z,42.00
2018-07-16T15:01:14.385Z,40.70
2018-07-16T15:03:42.905Z,43.50
2018-07-16T15:06:11.474Z,43.40
2018-07-16T15:08:40.040Z,43.00
2018-07-16T15:11:08.551Z,42.50
2018-07-16T15:13:37.115Z,41.90
2018-07-16T15:16:05.871Z,42.40
2018-07-16T15:18:34.495Z,42.60
2018-07-16T15:21:03.293Z,43.60
2018-07-16T15:23:31.576Z,43.10
2018-07-16T15:26:00.158Z,41.70
2018-07-16T15:28:28.649Z,43.40
2018-07-16T15:30:57.179Z,43.00
2018-07-16T15:33:25.744Z,42.80
2018-07-16T15:35:54.231Z,44.50
2018-07-16T15:38:22.848Z,45.50
2018-07-16T15:40:51.410Z,42.00
2018-07-16T15:43:20.004Z,43.70
2018-07-16T15:45:48.596Z,43.40
2018-07-16T15:48:17.221Z,44.50
2018-07-16T15:50:45.743Z,44.00
2018-07-16T15:53:14.254Z,43.30
2018-07-16T15:55:42.825Z,41.60
2018-07-16T15:58:11.337Z,43.60
2018-07-16T16:00:39.856Z,41.90
2018-07-16T16:03:08.403Z,43.20
2018-07-16T16:05:36.982Z,43.10
2018-07-16T16:08:05.709Z,44.30
2018-07-16T16:10:34.216Z,42.50
2018-07-16T16:13:02.833Z,42.80
2018-07-16T16:15:31.382Z,40.90
2018-07-16T16:18:00.040Z,41.90
2018-07-16T16:20:28.617Z,42.50
2018-07-16T16:22:57.176Z,42.20
2018-07-16T16:25:25.752Z,42.00
2018-07-16T16:27:54.409Z,42.40
2018-07-16T16:30:22.960Z,42.10
2018-07-16T16:32:51.436Z,42.10
2018-07-16T16:35:20.146Z,42.90
2018-07-16T16:37:48.646Z,42.30
2018-07-16T16:40:17.183Z,44.10
2018-07-16T16:42:45.705Z,42.40
2018-07-16T16:45:14.270Z,42.80
2018-07-16T16:47:42.812Z,42.50
2018-07-16T16:50:11.409Z,41.60
2018-07-16T16:52:39.999Z,42.00
2018-07-16T16:55:08.588Z,41.40
2018-07-16T16:57:37.258Z,42.50
2018-07-16T17:00:06.369Z,43.50
2018-07-16T17:02:34.917Z,45.00
2018-07-16T17:05:03.498Z,45.60
2018-07-16T17:07:32.015Z,46.80
2018-07-16T17:10:00.573Z,47.60
2018-07-16T17:12:29.263Z,47.90
2018-07-16T17:14:57.845Z,46.20
2018-07-16T17:17:26.462Z,44.20
2018-07-16T17:19:55.023Z,44.60
2018-07-16T17:22:23.587Z,45.90
2018-07-16T17:24:52.156Z,45.70
2018-07-16T17:27:20.676Z,45.00
2018-07-16T17:29:49.197Z,45.60
2018-07-16T17:32:17.819Z,45.40
2018-07-16T17:34:46.397Z,45.70
2018-07-16T17:37:14.911Z,46.40
2018-07-16T17:39:43.468Z,47.20
2018-07-16T17:42:11.990Z,47.10
2018-07-16T17:44:40.532Z,47.70
2018-07-16T17:47:09.226Z,48.20
2018-07-16T17:49:37.805Z,48.30
2018-07-16T17:52:06.547Z,48.50
2018-07-16T17:54:35.174Z,48.20
2018-07-16T17:57:03.743Z,49.00
2018-07-16T17:59:32.309Z,50.20
2018-07-16T18:02:00.903Z,52.00
2018-07-16T18:04:29.506Z,52.10
2018-07-16T18:06:58.147Z,53.20
2018-07-16T18:09:26.734Z,54.10
2018-07-16T18:11:55.302Z,55.40
2018-07-16T18:14:23.942Z,56.60
2018-07-16T18:16:52.485Z,57.30
2018-07-16T18:19:21.122Z,57.90
2018-07-16T18:21:49.674Z,58.60
2018-07-16T18:24:18.266Z,58.50
2018-07-16T18:26:46.945Z,57.50
2018-07-16T18:29:15.485Z,57.70
2018-07-16T18:31:44.056Z,59.70
2018-07-16T18:34:12.646Z,59.40
2018-07-16T18:36:41.242Z,60.30
2018-07-16T18:39:10.384Z,60.30
2018-07-16T18:41:38.991Z,60.90
2018-07-16T18:44:07.645Z,62.30
2018-07-16T18:46:36.247Z,63.40
2018-07-16T18:49:04.849Z,63.50
2018-07-16T18:51:33.463Z,63.10
2018-07-16T18:54:06.617Z,64.40
2018-07-16T18:56:35.150Z,65.80
2018-07-16T18:59:03.795Z,66.20
2018-07-16T19:01:32.403Z,66.90
2018-07-16T19:04:01.183Z,67.20
2018-07-16T19:06:29.840Z,67.00
2018-07-16T19:08:58.386Z,67.70
2018-07-16T19:11:26.942Z,67.90
2018-07-16T19:13:55.579Z,67.70
2018-07-16T19:16:24.277Z,68.60
2018-07-16T19:18:52.939Z,69.10
2018-07-16T19:21:21.688Z,69.40
2018-07-16T19:23:50.643Z,69.60
2018-07-16T19:26:20.416Z,69.90
2018-07-16T19:28:49.300Z,70.70
2018-07-16T19:31:18.236Z,71.30
2018-07-16T19:33:47.227Z,71.60
2018-07-16T19:36:15.797Z,72.70
2018-07-16T19:38:44.530Z,73.40
2018-07-16T19:41:13.538Z,74.20
2018-07-16T19:43:42.191Z,74.80
2018-07-16T19:46:10.906Z,75.20
2018-07-16T19:48:39.525Z,75.40
2018-07-16T19:51:08.154Z,75.70
2018-07-16T19:53:37.417Z,76.20
2018-07-16T19:56:06.662Z,75.50
2018-07-16T19:58:35.467Z,76.50
2018-07-16T20:01:04.062Z,76.40
2018-07-16T20:03:32.990Z,76.80
2018-07-16T20:06:01.623Z,77.20
2018-07-16T20:08:31.840Z,77.70
2018-07-16T20:11:01.091Z,78.10
2018-07-16T20:13:29.862Z,77.90
2018-07-16T20:15:58.492Z,78.00
2018-07-16T20:18:27.115Z,78.40
2018-07-16T20:20:57.734Z,78.10
2018-07-16T20:23:26.366Z,77.80
2018-07-16T20:25:56.291Z,77.40
2018-07-16T20:28:25.169Z,77.40
2018-07-16T20:30:53.900Z,77.30
2018-07-16T20:33:22.529Z,77.20
2018-07-16T20:35:51.229Z,78.00
2018-07-16T20:38:19.892Z,77.60
2018-07-16T20:40:48.524Z,77.20
2018-07-16T20:43:17.078Z,77.10
2018-07-16T20:45:45.806Z,77.80
2018-07-16T20:48:14.441Z,78.20
2018-07-16T20:50:43.017Z,78.40
2018-07-16T20:53:11.709Z,78.60
2018-07-16T20:55:40.385Z,79.70
2018-07-16T20:58:09.025Z,80.20
2018-07-16T21:00:37.640Z,80.10
2018-07-16T21:03:06.305Z,80.10
2018-07-16T21:05:34.885Z,80.50
2018-07-16T21:08:03.454Z,80.90
2018-07-16T21:10:32.005Z,81.00
2018-07-16T21:13:00.670Z,80.90
2018-07-16T21:15:29.302Z,80.80
2018-07-16T21:17:57.979Z,80.80
2018-07-16T21:20:26.577Z,81.10
2018-07-16T21:22:55.223Z,81.30
2018-07-16T21:25:23.774Z,81.40
2018-07-16T21:27:52.481Z,81.50
2018-07-16T21:30:21.149Z,81.60
2018-07-16T21:32:49.759Z,81.60
2018-07-16T21:35:18.347Z,81.50
2018-07-16T21:37:46.994Z,81.50
2018-07-16T21:40:15.616Z,81.50
2018-07-16T21:42:44.290Z,81.50
2018-07-16T21:45:12.901Z,81.50
2018-07-16T21:47:41.526Z,81.50
2018-07-16T21:50:10.164Z,81.50
2018-07-16T21:52:38.782Z,81.40
2018-07-16T21:55:07.532Z,81.60
2018-07-16T21:57:36.068Z,81.40
2018-07-16T22:00:06.268Z,81.60
2018-07-16T22:02:34.905Z,81.60
2018-07-16T22:05:03.521Z,81.50
2018-07-16T22:07:32.113Z,81.60
2018-07-16T22:10:00.704Z,82.00
2018-07-16T22:12:29.346Z,83.00
2018-07-16T22:14:58.046Z,83.60
2018-07-16T22:17:26.583Z,84.40
2018-07-16T22:19:55.152Z,84.10
2018-07-16T22:22:23.748Z,84.00
2018-07-16T22:24:52.387Z,83.80
2018-07-16T22:27:20.986Z,83.60
2018-07-16T22:29:49.595Z,83.40
2018-07-16T22:32:18.249Z,83.40
2018-07-16T22:34:46.888Z,84.20
2018-07-16T22:37:15.460Z,84.80
2018-07-16T22:39:44.031Z,85.10
2018-07-16T22:42:12.673Z,85.10
2018-07-16T22:44:41.293Z,85.30
2018-07-16T22:47:09.881Z,85.50
2018-07-16T22:49:38.501Z,85.70
2018-07-16T22:52:07.136Z,86.30
2018-07-16T22:54:35.653Z,86.20
2018-07-16T22:57:04.281Z,86.20
2018-07-16T22:59:32.963Z,85.90
2018-07-16T23:02:01.514Z,85.70
2018-07-16T23:04:30.135Z,85.80
2018-07-16T23:06:58.695Z,86.00
2018-07-16T23:09:27.413Z,86.40
2018-07-16T23:11:56.014Z,86.30
2018-07-16T23:14:24.694Z,86.00
2018-07-16T23:16:53.425Z,86.00
2018-07-16T23:19:21.994Z,86.00
2018-07-16T23:21:50.758Z,85.80
2018-07-16T23:24:19.373Z,85.60
2018-07-16T23:26:48.033Z,85.60
2018-07-16T23:29:16.562Z,85.40
2018-07-16T23:31:45.198Z,85.50
2018-07-16T23:34:13.738Z,85.50
2018-07-16T23:36:42.413Z,85.70
2018-07-16T23:39:12.564Z,85.70
2018-07-16T23:41:41.586Z,86.00
2018-07-16T23:44:10.198Z,86.30
2018-07-16T23:46:38.841Z,86.50
2018-07-16T23:49:07.957Z,86.60
2018-07-16T23:51:36.512Z,86.80
2018-07-16T23:54:05.052Z,86.60
2018-07-16T23:56:33.574Z,86.50
2018-07-16T23:59:03.854Z,86.60
